createdAt,value
2022-12-11T00:01:30.813Z,2.73
2022-12-11T00:04:38.378Z,2.67
2022-12-11T00:07:43.344Z,2.68
2022-12-11T00:10:50.776Z,2.59
2022-12-11T00:13:58.167Z,2.60
2022-12-11T00:17:07.207Z,2.53
2022-12-11T00:20:14.187Z,2.50
2022-12-11T00:23:24.157Z,2.52
2022-12-11T00:26:29.100Z,2.46
2022-12-11T00:29:38.482Z,2.44
2022-12-11T00:32:45.979Z,2.44
2022-12-11T00:35:54.836Z,2.43
2022-12-11T00:39:02.840Z,2.36
2022-12-11T00:42:11.040Z,2.33
2022-12-11T00:45:17.479Z,2.37
2022-12-11T00:48:25.217Z,2.34
2022-12-11T00:51:32.331Z,2.31
2022-12-11T00:54:38.496Z,2.23
2022-12-11T00:57:45.210Z,2.22
2022-12-11T01:00:53.864Z,2.20
2022-12-11T01:04:01.097Z,2.13
2022-12-11T01:07:06.799Z,2.11
2022-12-11T01:10:26.413Z,2.09
2022-12-11T01:13:33.135Z,2.06
2022-12-11T01:16:38.172Z,2.03
2022-12-11T01:19:44.944Z,2.00
2022-12-11T01:22:54.591Z,1.98
2022-12-11T01:26:07.401Z,1.99
2022-12-11T01:29:12.895Z,1.94
2022-12-11T01:32:21.687Z,1.91
2022-12-11T01:35:28.172Z,1.86
2022-12-11T01:38:38.408Z,1.83
2022-12-11T01:41:46.990Z,1.85
2022-12-11T01:44:52.669Z,1.80
2022-12-11T01:48:01.705Z,1.76
2022-12-11T01:51:10.408Z,1.73
2022-12-11T01:54:19.734Z,1.70
2022-12-11T01:57:28.709Z,1.65
2022-12-11T02:00:36.926Z,1.58
2022-12-11T02:03:44.127Z,1.58
2022-12-11T02:06:53.069Z,1.61
2022-12-11T02:09:59.740Z,1.51
2022-12-11T02:13:15.083Z,1.48
2022-12-11T02:16:30.724Z,1.47
2022-12-11T02:19:57.352Z,1.40
2022-12-11T02:23:15.104Z,1.34
2022-12-11T02:26:38.563Z,1.26
2022-12-11T02:29:51.299Z,1.21
2022-12-11T02:32:59.331Z,1.16
2022-12-11T02:36:06.491Z,1.13
2022-12-11T02:39:15.770Z,1.08
2022-12-11T02:42:22.820Z,1.03
2022-12-11T02:45:30.385Z,1.01
2022-12-11T02:48:37.129Z,1.00
2022-12-11T02:51:45.177Z,0.98
2022-12-11T02:54:53.604Z,0.91
2022-12-11T02:58:02.373Z,0.92
2022-12-11T03:01:09.298Z,0.84
2022-12-11T03:04:16.933Z,0.82
2022-12-11T03:07:27.727Z,0.80
2022-12-11T03:10:34.015Z,0.76
2022-12-11T03:13:43.606Z,0.73
2022-12-11T03:16:58.602Z,0.74
2022-12-11T03:20:10.151Z,0.71
2022-12-11T03:23:22.748Z,0.68
2022-12-11T03:26:30.274Z,0.72
2022-12-11T03:29:39.894Z,0.75
2022-12-11T03:32:54.593Z,0.71
2022-12-11T03:36:10.539Z,0.67
2022-12-11T03:39:20.811Z,0.71
2022-12-11T03:42:29.579Z,0.64
2022-12-11T03:45:40.646Z,0.65
2022-12-11T03:48:50.661Z,0.61
2022-12-11T03:51:57.757Z,0.62
2022-12-11T03:55:06.430Z,0.63
2022-12-11T03:58:13.174Z,0.62
2022-12-11T04:01:21.579Z,0.63
2022-12-11T04:04:31.414Z,0.59
2022-12-11T04:07:39.269Z,0.55
2022-12-11T04:10:47.301Z,0.52
2022-12-11T04:14:13.631Z,0.53
2022-12-11T04:17:39.656Z,0.50
2022-12-11T04:21:04.593Z,0.50
2022-12-11T04:24:17.805Z,0.51
2022-12-11T04:27:50.425Z,0.51
2022-12-11T04:30:56.439Z,0.52
2022-12-11T04:34:11.562Z,0.51
2022-12-11T04:37:17.843Z,0.50
2022-12-11T04:40:24.036Z,0.50
2022-12-11T04:43:31.477Z,0.50
2022-12-11T04:46:36.984Z,0.48
2022-12-11T04:49:42.995Z,0.47
2022-12-11T04:52:47.321Z,0.50
2022-12-11T04:55:57.317Z,0.50
2022-12-11T04:59:03.023Z,0.53
2022-12-11T05:02:11.661Z,0.52
2022-12-11T05:05:18.094Z,0.54
2022-12-11T05:08:24.888Z,0.55
2022-12-11T05:11:30.540Z,0.56
2022-12-11T05:14:36.850Z,0.57
2022-12-11T05:17:43.074Z,0.57
2022-12-11T05:21:03.083Z,0.59
2022-12-11T05:24:08.372Z,0.56
2022-12-11T05:27:16.059Z,0.58
2022-12-11T05:30:25.575Z,0.60
2022-12-11T05:33:31.733Z,0.64
2022-12-11T05:36:39.206Z,0.61
2022-12-11T05:39:47.473Z,0.62
2022-12-11T05:42:53.669Z,0.58
2022-12-11T05:46:07.346Z,0.62
2022-12-11T05:49:13.619Z,0.63
2022-12-11T05:52:25.630Z,0.63
2022-12-11T05:55:31.205Z,0.59
2022-12-11T05:58:41.649Z,0.59
2022-12-11T06:01:48.979Z,0.58
2022-12-11T06:04:55.862Z,0.58
2022-12-11T06:08:05.037Z,0.54
2022-12-11T06:11:12.238Z,0.59
2022-12-11T06:14:19.868Z,0.57
2022-12-11T06:17:26.058Z,0.57
2022-12-11T06:20:34.117Z,0.57
2022-12-11T06:23:41.853Z,0.58
2022-12-11T06:26:46.051Z,0.58
2022-12-11T06:29:51.810Z,0.58
2022-12-11T06:33:00.605Z,0.60
2022-12-11T06:36:10.236Z,0.60
2022-12-11T06:39:18.149Z,0.66
2022-12-11T06:42:31.073Z,0.67
2022-12-11T06:45:40.368Z,0.69
2022-12-11T06:48:48.552Z,0.64
2022-12-11T06:51:54.669Z,0.65
2022-12-11T06:55:01.926Z,0.61
2022-12-11T06:58:11.001Z,0.60
2022-12-11T07:01:24.346Z,0.64
2022-12-11T07:04:31.239Z,0.63
2022-12-11T07:07:39.416Z,0.63
2022-12-11T07:10:46.946Z,0.66
2022-12-11T07:13:54.480Z,0.64
2022-12-11T07:17:02.913Z,0.70
2022-12-11T07:20:10.206Z,0.73
2022-12-11T07:23:16.058Z,0.75
2022-12-11T07:26:25.779Z,0.79
2022-12-11T07:29:32.214Z,0.78
2022-12-11T07:32:40.990Z,0.91
2022-12-11T07:35:49.476Z,0.94
2022-12-11T07:38:55.900Z,1.00
2022-12-11T07:42:04.558Z,1.12
2022-12-11T07:45:11.504Z,1.24
2022-12-11T07:48:18.723Z,1.25
2022-12-11T07:51:31.146Z,1.39
2022-12-11T07:54:38.982Z,1.45
2022-12-11T07:57:44.822Z,1.52
2022-12-11T08:00:51.538Z,1.50
2022-12-11T08:03:59.006Z,1.44
2022-12-11T08:07:05.872Z,1.39
2022-12-11T08:10:12.104Z,1.39
2022-12-11T08:13:17.182Z,1.34
2022-12-11T08:16:26.401Z,1.30
2022-12-11T08:19:32.421Z,1.40
2022-12-11T08:22:39.054Z,1.36
2022-12-11T08:25:45.487Z,1.36
2022-12-11T08:28:53.736Z,1.38
2022-12-11T08:32:02.509Z,1.41
2022-12-11T08:35:12.241Z,1.43
2022-12-11T08:38:25.042Z,1.47
2022-12-11T08:41:33.641Z,1.43
2022-12-11T08:44:39.109Z,1.46
2022-12-11T08:47:45.609Z,1.43
2022-12-11T08:50:53.576Z,1.30
2022-12-11T08:53:59.653Z,1.39
2022-12-11T08:57:06.409Z,1.44
2022-12-11T09:00:15.977Z,1.39
2022-12-11T09:03:22.230Z,1.41
2022-12-11T09:06:29.067Z,1.40
2022-12-11T09:09:33.694Z,1.46
2022-12-11T09:12:42.165Z,1.39
2022-12-11T09:15:45.012Z,1.44
2022-12-11T09:18:51.013Z,1.41
2022-12-11T09:21:58.679Z,1.36
2022-12-11T09:25:06.025Z,1.41
2022-12-11T09:28:11.269Z,1.44
2022-12-11T09:31:26.847Z,1.46
2022-12-11T09:34:33.791Z,1.45
2022-12-11T09:37:40.553Z,1.48
2022-12-11T09:40:45.115Z,1.38
2022-12-11T09:43:49.765Z,1.39
2022-12-11T09:46:56.320Z,1.40
2022-12-11T09:50:11.803Z,1.40
2022-12-11T09:53:20.473Z,1.44
2022-12-11T09:56:34.411Z,1.46
2022-12-11T09:59:47.070Z,1.46
2022-12-11T10:02:56.862Z,1.52
2022-12-11T10:06:18.473Z,1.47
2022-12-11T10:09:23.197Z,1.53
2022-12-11T10:12:32.232Z,1.48
2022-12-11T10:15:54.133Z,1.61
2022-12-11T10:19:01.232Z,1.62
2022-12-11T10:22:21.685Z,1.59
2022-12-11T10:25:32.290Z,1.51
2022-12-11T10:28:39.364Z,1.57
2022-12-11T10:31:52.441Z,1.48
2022-12-11T10:35:02.989Z,1.46
2022-12-11T10:38:18.122Z,1.54
2022-12-11T10:41:33.036Z,1.60
2022-12-11T10:44:38.480Z,1.56
2022-12-11T10:47:43.094Z,1.55
2022-12-11T10:50:56.199Z,1.51
2022-12-11T10:54:17.629Z,1.48
2022-12-11T10:57:29.439Z,1.46
2022-12-11T11:00:35.226Z,1.49
2022-12-11T11:03:52.895Z,1.43
2022-12-11T11:07:23.112Z,1.45
2022-12-11T11:10:28.779Z,1.50
2022-12-11T11:13:36.449Z,1.50
2022-12-11T11:16:44.073Z,1.51
2022-12-11T11:19:54.025Z,1.47
2022-12-11T11:23:04.196Z,1.55
2022-12-11T11:26:10.699Z,1.56
2022-12-11T11:29:26.243Z,1.64
2022-12-11T11:32:34.062Z,1.66
2022-12-11T11:35:53.532Z,1.69
2022-12-11T11:39:09.440Z,1.84
2022-12-11T11:42:20.034Z,1.75
2022-12-11T11:45:41.689Z,1.78
2022-12-11T11:48:52.507Z,1.73
2022-12-11T11:52:03.367Z,1.73
2022-12-11T11:55:20.324Z,1.80
2022-12-11T11:58:32.121Z,1.78
2022-12-11T12:01:41.371Z,1.74
2022-12-11T12:04:47.095Z,1.75
2022-12-11T12:08:08.221Z,1.76
2022-12-11T12:11:46.004Z,1.78
2022-12-11T12:14:55.989Z,1.84
2022-12-11T12:18:09.885Z,1.82
2022-12-11T12:21:16.025Z,1.83
2022-12-11T12:24:28.996Z,1.74
2022-12-11T12:27:54.269Z,1.89
2022-12-11T12:31:03.616Z,1.78
2022-12-11T12:34:18.453Z,1.79
2022-12-11T12:37:39.221Z,1.77
2022-12-11T12:40:45.293Z,1.80
2022-12-11T12:44:22.033Z,1.84
2022-12-11T12:47:29.485Z,1.79
2022-12-11T12:50:43.324Z,1.75
2022-12-11T12:54:12.326Z,1.80
2022-12-11T12:57:21.329Z,1.87
2022-12-11T13:00:32.287Z,1.73
2022-12-11T13:03:52.771Z,1.81
2022-12-11T13:06:59.982Z,1.91
2022-12-11T13:10:25.133Z,1.87
2022-12-11T13:13:34.765Z,1.82
2022-12-11T13:16:41.850Z,1.85
2022-12-11T13:19:50.973Z,1.88
2022-12-11T13:22:59.802Z,1.87
2022-12-11T13:26:08.461Z,1.90
2022-12-11T13:29:30.280Z,1.75
2022-12-11T13:32:35.706Z,1.82
2022-12-11T13:35:42.376Z,1.78
2022-12-11T13:38:50.386Z,1.79
2022-12-11T13:41:59.532Z,1.78
2022-12-11T13:45:05.840Z,1.80
2022-12-11T13:48:22.913Z,1.73
2022-12-11T13:51:30.760Z,1.65
2022-12-11T13:54:49.883Z,1.63
2022-12-11T13:57:55.953Z,1.58
2022-12-11T14:01:14.582Z,1.58
2022-12-11T14:04:22.915Z,1.53
2022-12-11T14:07:31.087Z,1.51
2022-12-11T14:10:40.373Z,1.60
2022-12-11T14:13:47.230Z,1.58
2022-12-11T14:16:56.099Z,1.53
2022-12-11T14:20:03.624Z,1.53
2022-12-11T14:23:17.805Z,1.47
2022-12-11T14:26:24.969Z,1.47
2022-12-11T14:29:33.481Z,1.41
2022-12-11T14:32:42.516Z,1.39
2022-12-11T14:35:51.081Z,1.34
2022-12-11T14:39:04.983Z,1.37
2022-12-11T14:42:18.994Z,1.31
2022-12-11T14:45:37.900Z,1.27
2022-12-11T14:48:53.856Z,1.23
2022-12-11T14:52:02.393Z,1.28
2022-12-11T14:55:17.103Z,1.23
2022-12-11T14:58:22.687Z,1.18
2022-12-11T15:01:29.574Z,1.16
2022-12-11T15:04:33.602Z,1.09
2022-12-11T15:07:42.602Z,1.09
2022-12-11T15:11:07.769Z,1.12
2022-12-11T15:14:15.204Z,1.10
2022-12-11T15:17:20.523Z,1.11
2022-12-11T15:20:29.274Z,1.06
2022-12-11T15:23:38.639Z,1.09
2022-12-11T15:26:48.466Z,1.02
2022-12-11T15:29:56.179Z,1.00
2022-12-11T15:33:04.801Z,0.98
2022-12-11T15:36:26.245Z,1.04
2022-12-11T15:39:33.081Z,0.99
2022-12-11T15:42:42.688Z,0.91
2022-12-11T15:45:51.327Z,0.90
2022-12-11T15:49:00.076Z,0.87
2022-12-11T15:52:05.851Z,0.92
2022-12-11T15:55:12.170Z,0.87
2022-12-11T15:58:21.835Z,0.84
2022-12-11T16:01:25.570Z,0.79
2022-12-11T16:04:30.629Z,0.82
2022-12-11T16:07:35.186Z,0.82
2022-12-11T16:10:44.132Z,0.73
2022-12-11T16:13:49.549Z,0.77
2022-12-11T16:16:54.689Z,0.71
2022-12-11T16:20:00.003Z,0.72
2022-12-11T16:23:06.806Z,0.66
2022-12-11T16:26:10.322Z,0.66
2022-12-11T16:29:14.090Z,0.69
2022-12-11T16:32:18.677Z,0.63
2022-12-11T16:35:24.057Z,0.60
2022-12-11T16:38:28.396Z,0.63
2022-12-11T16:41:32.897Z,0.65
2022-12-11T16:44:40.997Z,0.63
2022-12-11T16:47:49.707Z,0.58
2022-12-11T16:50:57.303Z,0.51
2022-12-11T16:54:04.904Z,0.52
2022-12-11T16:57:08.710Z,0.57
2022-12-11T17:00:13.013Z,0.50
2022-12-11T17:03:17.633Z,0.52
2022-12-11T17:06:23.379Z,0.47
2022-12-11T17:09:28.382Z,0.48
2022-12-11T17:12:33.449Z,0.49
2022-12-11T17:15:41.946Z,0.48
2022-12-11T17:18:49.628Z,0.41
2022-12-11T17:21:54.695Z,0.43
2022-12-11T17:24:58.246Z,0.39
2022-12-11T17:28:03.381Z,0.34
2022-12-11T17:31:14.185Z,0.33
2022-12-11T17:34:17.509Z,0.32
2022-12-11T17:37:21.596Z,0.43
2022-12-11T17:40:29.061Z,0.34
2022-12-11T17:43:35.750Z,0.36
2022-12-11T17:46:41.666Z,0.36
2022-12-11T17:49:46.079Z,0.37
2022-12-11T17:52:49.932Z,0.39
2022-12-11T17:55:56.961Z,0.39
2022-12-11T17:59:01.917Z,0.27
2022-12-11T18:02:11.104Z,0.40
2022-12-11T18:05:17.935Z,0.35
2022-12-11T18:08:24.007Z,0.33
2022-12-11T18:11:32.621Z,0.30
2022-12-11T18:14:39.837Z,0.26
2022-12-11T18:17:47.371Z,0.14
2022-12-11T18:20:54.686Z,0.26
2022-12-11T18:24:01.747Z,0.28
2022-12-11T18:27:12.041Z,0.26
2022-12-11T18:30:18.151Z,0.14
2022-12-11T18:33:22.715Z,0.26
2022-12-11T18:36:29.859Z,0.22
2022-12-11T18:39:33.462Z,0.22
2022-12-11T18:42:39.468Z,0.14
2022-12-11T18:45:47.584Z,0.14
2022-12-11T18:48:53.144Z,0.16
2022-12-11T18:51:59.792Z,0.11
2022-12-11T18:55:06.975Z,0.14
2022-12-11T18:58:16.017Z,0.10
2022-12-11T19:01:25.255Z,0.14
2022-12-11T19:04:31.040Z,0.11
2022-12-11T19:07:37.640Z,0.03
2022-12-11T19:10:47.261Z,0.09
2022-12-11T19:13:57.596Z,0.08
2022-12-11T19:17:04.276Z,0.11
2022-12-11T19:20:40.534Z,0.06
2022-12-11T19:23:41.677Z,0.06
2022-12-11T19:26:48.035Z,0.06
2022-12-11T19:29:52.334Z,0.06
2022-12-11T19:32:58.649Z,0.06
2022-12-11T19:36:07.997Z,0.03
2022-12-11T19:39:18.097Z,0.02
2022-12-11T19:42:25.490Z,-0.01
2022-12-11T19:45:33.420Z,0.04
2022-12-11T19:48:41.217Z,-0.03
2022-12-11T19:51:47.568Z,-0.07
2022-12-11T19:54:55.532Z,-0.04
2022-12-11T19:58:00.307Z,-0.05
2022-12-11T20:01:06.526Z,-0.07
2022-12-11T20:04:12.890Z,0.01
2022-12-11T20:07:21.627Z,-0.05
2022-12-11T20:10:28.248Z,-0.10
2022-12-11T20:13:35.166Z,-0.15
2022-12-11T20:20:06.318Z,-0.21
2022-12-11T20:23:12.323Z,-0.18
2022-12-11T20:26:20.858Z,-0.22
2022-12-11T20:29:26.311Z,-0.33
2022-12-11T20:32:32.025Z,-0.33
2022-12-11T20:35:38.140Z,-0.43
2022-12-11T20:38:42.569Z,-0.40
2022-12-11T20:41:48.758Z,-0.44
2022-12-11T20:44:55.282Z,-0.45
2022-12-11T20:48:03.432Z,-0.49
2022-12-11T20:51:10.922Z,-0.53
2022-12-11T20:54:16.342Z,-0.49
2022-12-11T20:57:22.084Z,-0.52
2022-12-11T21:00:28.152Z,-0.53
2022-12-11T21:03:36.432Z,-0.45
2022-12-11T21:06:45.961Z,-0.52
2022-12-11T21:09:52.119Z,-0.55
2022-12-11T21:12:59.699Z,-0.59
2022-12-11T21:16:09.181Z,-0.64
2022-12-11T21:19:17.969Z,-0.67
2022-12-11T21:22:24.501Z,-0.68
2022-12-11T21:25:34.318Z,-0.68
2022-12-11T21:28:41.014Z,-0.72
2022-12-11T21:31:50.795Z,-0.87
2022-12-11T21:34:59.712Z,-0.82
2022-12-11T21:38:08.001Z,-0.82
2022-12-11T21:41:15.839Z,-0.88
2022-12-11T21:47:47.874Z,-1.03
2022-12-11T21:50:54.045Z,-0.94
2022-12-11T21:54:00.865Z,-0.98
2022-12-11T21:57:08.069Z,-1.04
2022-12-11T22:00:15.732Z,-1.09
2022-12-11T22:03:22.541Z,-1.05
2022-12-11T22:06:30.483Z,-1.12
2022-12-11T22:09:37.635Z,-1.13
2022-12-11T22:12:43.736Z,-1.19
2022-12-11T22:15:50.536Z,-1.20
2022-12-11T22:18:55.817Z,-1.20
2022-12-11T22:22:03.204Z,-1.16
2022-12-11T22:25:10.062Z,-1.17
2022-12-11T22:28:15.213Z,-1.20
2022-12-11T22:31:23.030Z,-1.23
2022-12-11T22:34:28.574Z,-1.27
2022-12-11T22:37:33.697Z,-1.38
2022-12-11T22:40:49.151Z,-1.37
2022-12-11T22:43:54.041Z,-1.42
2022-12-11T22:47:00.334Z,-1.38
2022-12-11T22:50:07.520Z,-1.45
2022-12-11T22:53:12.414Z,-1.45
2022-12-11T22:56:18.190Z,-1.51
2022-12-11T22:59:23.060Z,-1.54
2022-12-11T23:02:30.348Z,-1.61
2022-12-11T23:05:40.351Z,-1.59
2022-12-11T23:08:46.092Z,-1.64
2022-12-11T23:11:54.134Z,-1.62
2022-12-11T23:15:03.788Z,-1.69
2022-12-11T23:18:08.783Z,-1.69
2022-12-11T23:21:12.851Z,-1.74
2022-12-11T23:24:20.994Z,-1.73
2022-12-11T23:27:26.560Z,-1.70
2022-12-11T23:30:32.901Z,-1.72
2022-12-11T23:33:37.419Z,-1.69
2022-12-11T23:36:45.702Z,-1.72
2022-12-11T23:39:49.938Z,-1.76
2022-12-11T23:42:55.285Z,-1.74
2022-12-11T23:46:03.917Z,-1.77
2022-12-11T23:49:12.509Z,-1.82
2022-12-11T23:52:22.990Z,-1.82
2022-12-11T23:55:31.362Z,-1.79
2022-12-11T23:58:38.369Z,-1.85
